createdAt,value
2023-02-04T00:02:00.507Z,100999.03
2023-02-04T00:04:27.049Z,101006.28
2023-02-04T00:06:53.708Z,100992.50
2023-02-04T00:09:20.306Z,100998.94
2023-02-04T00:11:46.840Z,101009.13
2023-02-04T00:14:13.562Z,100992.50
2023-02-04T00:16:40.134Z,100998.94
2023-02-04T00:19:06.628Z,100995.19
2023-02-04T00:21:33.221Z,100995.19
2023-02-04T00:23:59.770Z,100996.25
2023-02-04T00:26:26.305Z,100988.97
2023-02-04T00:28:52.867Z,100985.69
2023-02-04T00:31:19.522Z,100994.34
2023-02-04T00:33:46.087Z,100985.47
2023-02-04T00:36:12.672Z,100986.75
2023-02-04T00:38:39.236Z,100981.59
2023-02-04T00:41:07.044Z,100981.59
2023-02-04T00:43:33.719Z,100986.19
2023-02-04T00:46:00.502Z,100985.13
2023-02-04T00:48:27.161Z,100979.97
2023-02-04T00:50:54.367Z,100986.19
2023-02-04T00:53:20.964Z,100992.38
2023-02-04T00:55:47.600Z,100987.00
2023-02-04T00:58:14.261Z,100989.69
2023-02-04T01:00:40.841Z,100995.34
2023-02-04T01:03:07.817Z,100995.00
2023-02-04T01:05:34.405Z,100990.44
2023-02-04T01:08:00.975Z,100989.63
2023-02-04T01:10:28.672Z,100998.28
2023-02-04T01:12:55.590Z,100988.06
2023-02-04T01:15:23.073Z,100978.34
2023-02-04T01:17:49.801Z,100983.72
2023-02-04T01:20:16.708Z,100988.06
2023-02-04T01:22:43.247Z,100985.84
2023-02-04T01:25:10.060Z,100995.00
2023-02-04T01:27:36.685Z,100986.34
2023-02-04T01:30:04.983Z,100985.34
2023-02-04T01:32:31.552Z,100991.31
2023-02-04T01:34:58.125Z,100987.81
2023-02-04T01:37:24.658Z,100999.09
2023-02-04T01:39:51.300Z,100991.25
2023-02-04T01:42:17.962Z,100995.00
2023-02-04T01:44:44.673Z,100996.34
2023-02-04T01:47:11.539Z,100996.34
2023-02-04T01:49:38.101Z,100991.50
2023-02-04T01:52:05.257Z,100990.94
2023-02-04T01:54:32.286Z,101003.59
2023-02-04T01:56:59.167Z,100993.63
2023-02-04T01:59:27.002Z,101003.66
2023-02-04T02:01:54.759Z,101000.72
2023-02-04T02:04:33.769Z,101001.22
2023-02-04T02:07:03.794Z,100997.78
2023-02-04T02:09:31.507Z,100996.16
2023-02-04T02:11:58.843Z,100993.44
2023-02-04T02:14:25.501Z,100989.69
2023-02-04T02:16:52.163Z,100982.94
2023-02-04T02:19:27.367Z,100998.28
2023-02-04T02:22:05.105Z,100986.69
2023-02-04T02:24:34.646Z,100982.66
2023-02-04T02:27:08.455Z,100980.81
2023-02-04T02:29:36.654Z,100976.22
2023-02-04T02:32:03.372Z,100978.09
2023-02-04T02:34:30.723Z,100977.38
2023-02-04T02:36:59.471Z,100975.75
2023-02-04T02:39:26.910Z,100970.34
2023-02-04T02:41:55.120Z,100959.56
2023-02-04T02:44:22.057Z,100966.00
2023-02-04T02:46:49.041Z,100969.53
2023-02-04T02:49:18.087Z,100972.00
2023-02-04T02:51:45.994Z,100973.34
2023-02-04T02:54:28.389Z,100979.81
2023-02-04T02:56:56.036Z,100983.91
2023-02-04T02:59:23.476Z,100982.28
2023-02-04T03:01:55.258Z,100991.44
2023-02-04T03:04:22.475Z,100979.31
2023-02-04T03:06:49.769Z,100981.22
2023-02-04T03:09:16.523Z,100981.78
2023-02-04T03:11:43.299Z,100983.41
2023-02-04T03:14:09.908Z,100981.28
2023-02-04T03:16:38.034Z,100979.66
2023-02-04T03:19:07.648Z,100988.81
2023-02-04T03:21:35.159Z,100990.44
2023-02-04T03:24:02.047Z,101002.84
2023-02-04T03:26:28.632Z,100993.72
2023-02-04T03:28:55.204Z,101002.84
2023-02-04T03:31:22.270Z,101001.78
2023-02-04T03:33:48.865Z,101006.34
2023-02-04T03:36:15.425Z,101003.44
2023-02-04T03:38:42.038Z,100999.94
2023-02-04T03:41:08.609Z,100999.09
2023-02-04T03:43:35.287Z,101001.22
2023-02-04T03:46:02.101Z,100995.00
2023-02-04T03:48:28.663Z,100997.13
2023-02-04T03:50:55.182Z,101004.16
2023-02-04T03:53:22.312Z,101006.84
2023-02-04T03:55:48.866Z,101007.69
2023-02-04T03:58:15.530Z,100999.59
2023-02-04T04:00:42.199Z,100999.59
2023-02-04T04:03:09.044Z,101013.16
2023-02-04T04:05:35.716Z,101008.88
2023-02-04T04:08:02.440Z,101024.13
2023-02-04T04:10:29.591Z,101008.72
2023-02-04T04:12:56.926Z,101019.41
2023-02-04T04:15:23.980Z,101008.59
2023-02-04T04:17:50.705Z,101016.78
2023-02-04T04:20:17.576Z,101020.88
2023-02-04T04:22:45.874Z,101031.97
2023-02-04T04:25:12.696Z,101028.19
2023-02-04T04:27:39.284Z,101033.13
2023-02-04T04:30:06.246Z,101035.81
2023-02-04T04:32:32.915Z,101033.94
2023-02-04T04:34:59.601Z,101034.75
2023-02-04T04:37:26.364Z,101024.78
2023-02-04T04:39:53.326Z,101027.22
2023-02-04T04:42:20.063Z,101025.09
2023-02-04T04:44:46.603Z,101027.31
2023-02-04T04:47:13.169Z,101033.03
2023-02-04T04:49:39.735Z,101021.97
2023-02-04T04:52:06.294Z,101037.66
2023-02-04T04:54:32.829Z,101026.88
2023-02-04T04:56:59.402Z,101033.91
2023-02-04T04:59:25.970Z,101031.75
2023-02-04T05:01:52.651Z,101030.13
2023-02-04T05:04:19.202Z,101033.41
2023-02-04T05:06:46.091Z,101028.84
2023-02-04T05:09:12.727Z,101029.41
2023-02-04T05:11:39.261Z,101036.69
2023-02-04T05:14:05.856Z,101028.84
2023-02-04T05:16:32.503Z,101029.06
2023-02-04T05:18:59.066Z,101030.13
2023-02-04T05:21:25.625Z,101033.41
2023-02-04T05:23:52.171Z,101026.94
2023-02-04T05:26:29.490Z,101036.09
2023-02-04T05:28:57.010Z,101034.47
2023-02-04T05:31:23.722Z,101049.59
2023-02-04T05:33:50.412Z,101049.59
2023-02-04T05:36:17.899Z,101049.59
2023-02-04T05:38:44.647Z,101051.50
2023-02-04T05:41:11.206Z,101055.81
2023-02-04T05:43:37.821Z,101060.66
2023-02-04T05:46:04.744Z,101059.81
2023-02-04T05:48:31.436Z,101055.50
2023-02-04T05:50:57.982Z,101046.81
2023-02-04T05:53:26.166Z,101057.63
2023-02-04T05:55:52.905Z,101055.41
2023-02-04T05:58:19.731Z,101058.19
2023-02-04T06:00:46.396Z,101070.72
2023-02-04T06:03:14.531Z,101070.50
2023-02-04T06:05:41.366Z,101062.97
2023-02-04T06:08:08.149Z,101080.00
2023-02-04T06:10:34.687Z,101083.78
2023-02-04T06:13:01.286Z,101082.16
2023-02-04T06:15:27.877Z,101090.25
2023-02-04T06:17:54.481Z,101091.31
2023-02-04T06:20:21.047Z,101097.03
2023-02-04T06:22:51.644Z,101097.34
2023-02-04T06:25:18.994Z,101102.06
2023-02-04T06:27:45.617Z,101106.97
2023-02-04T06:30:12.670Z,101112.84
2023-02-04T06:32:39.242Z,101116.19
2023-02-04T06:35:06.270Z,101111.94
2023-02-04T06:37:32.906Z,101117.28
2023-02-04T06:39:59.501Z,101123.25
2023-02-04T06:42:26.066Z,101131.84
2023-02-04T06:44:53.444Z,101131.72
2023-02-04T06:47:20.157Z,101133.25
2023-02-04T06:49:46.719Z,101141.47
2023-02-04T06:52:13.314Z,101150.31
2023-02-04T06:54:39.903Z,101149.09
2023-02-04T06:57:09.418Z,101157.88
2023-02-04T06:59:38.161Z,101168.34
2023-02-04T07:02:06.377Z,101169.56
2023-02-04T07:04:33.724Z,101171.28
2023-02-04T07:07:00.420Z,101165.56
2023-02-04T07:09:27.382Z,101156.31
2023-02-04T07:11:54.183Z,101148.97
2023-02-04T07:14:20.780Z,101145.09
2023-02-04T07:16:47.304Z,101150.69
2023-02-04T07:19:13.874Z,101147.88
2023-02-04T07:21:40.450Z,101154.13
2023-02-04T07:24:07.106Z,101153.28
2023-02-04T07:26:34.397Z,101163.63
2023-02-04T07:29:01.084Z,101171.44
2023-02-04T07:31:27.900Z,101174.22
2023-02-04T07:33:54.487Z,101183.72
2023-02-04T07:36:21.124Z,101198.03
2023-02-04T07:38:47.752Z,101202.84
2023-02-04T07:41:14.385Z,101199.09
2023-02-04T07:43:41.086Z,101194.53
2023-02-04T07:46:07.768Z,101186.16
2023-02-04T07:48:34.373Z,101196.16
2023-02-04T07:51:00.986Z,101188.63
2023-02-04T07:53:27.539Z,101203.75
2023-02-04T07:55:54.095Z,101194.09
2023-02-04T07:58:20.695Z,101201.41
2023-02-04T08:00:47.232Z,101194.94
2023-02-04T08:03:13.776Z,101201.72
2023-02-04T08:05:40.379Z,101207.94
2023-02-04T08:08:06.979Z,101217.09
2023-02-04T08:10:33.871Z,101215.22
2023-02-04T08:13:00.792Z,101210.06
2023-02-04T08:15:27.355Z,101214.97
2023-02-04T08:17:53.886Z,101212.34
2023-02-04T08:20:20.522Z,101225.34
2023-02-04T08:22:47.152Z,101227.56
2023-02-04T08:25:13.689Z,101240.59
2023-02-04T08:27:40.324Z,101235.78
2023-02-04T08:30:07.562Z,101238.47
2023-02-04T08:32:34.172Z,101234.13
2023-02-04T08:35:01.188Z,101244.09
2023-02-04T08:37:27.800Z,101248.22
2023-02-04T08:39:54.407Z,101259.31
2023-02-04T08:42:20.931Z,101246.09
2023-02-04T08:44:47.621Z,101259.00
2023-02-04T08:47:14.206Z,101266.28
2023-02-04T08:49:40.803Z,101266.53
2023-02-04T08:52:08.355Z,101274.06
2023-02-04T08:54:35.711Z,101272.31
2023-02-04T08:57:03.037Z,101272.56
2023-02-04T08:59:29.947Z,101272.22
2023-02-04T09:01:56.550Z,101271.19
2023-02-04T09:04:24.709Z,101287.94
2023-02-04T09:06:51.649Z,101276.66
2023-02-04T09:09:19.367Z,101271.94
2023-02-04T09:11:47.551Z,101276.34
2023-02-04T09:14:14.301Z,101270.53
2023-02-04T09:16:40.999Z,101284.72
2023-02-04T09:19:09.284Z,101271.28
2023-02-04T09:21:35.841Z,101277.00
2023-02-04T09:24:02.491Z,101272.94
2023-02-04T09:26:29.199Z,101278.00
2023-02-04T09:28:55.842Z,101284.22
2023-02-04T09:31:22.626Z,101287.00
2023-02-04T09:33:49.333Z,101294.69
2023-02-04T09:36:15.919Z,101290.75
2023-02-04T09:38:42.623Z,101296.50
2023-02-04T09:41:12.240Z,101291.91
2023-02-04T09:43:41.736Z,101299.28
2023-02-04T09:46:20.618Z,101293.38
2023-02-04T09:48:47.812Z,101295.28
2023-02-04T09:51:20.988Z,101304.19
2023-02-04T09:53:48.869Z,101297.63
2023-02-04T09:56:15.662Z,101303.63
2023-02-04T09:58:43.010Z,101300.97
2023-02-04T10:01:16.194Z,101311.06
2023-02-04T10:03:47.832Z,101321.44
2023-02-04T10:06:20.245Z,101315.56
2023-02-04T10:08:48.983Z,101316.59
2023-02-04T10:11:18.191Z,101313.34
2023-02-04T10:13:50.320Z,101322.00
2023-02-04T10:16:29.890Z,101323.34
2023-02-04T10:19:02.811Z,101317.31
2023-02-04T10:21:39.885Z,101317.75
2023-02-04T10:24:17.013Z,101328.56
2023-02-04T10:26:43.643Z,101315.16
2023-02-04T10:29:19.272Z,101322.22
2023-02-04T10:31:50.788Z,101322.28
2023-02-04T10:34:19.873Z,101316.94
2023-02-04T10:36:54.591Z,101320.78
2023-02-04T10:39:23.221Z,101319.13
2023-02-04T10:41:54.888Z,101324.81
2023-02-04T10:44:26.833Z,101324.81
2023-02-04T10:47:08.806Z,101324.97
2023-02-04T10:49:36.620Z,101319.72
2023-02-04T10:52:13.812Z,101321.03
2023-02-04T10:54:40.414Z,101329.25
2023-02-04T10:57:16.100Z,101327.63
2023-02-04T10:59:44.014Z,101324.47
2023-02-04T11:02:41.442Z,101320.28
2023-02-04T11:05:32.552Z,101330.03
2023-02-04T11:07:59.823Z,101330.22
2023-02-04T11:10:33.368Z,101321.66
2023-02-04T11:13:03.534Z,101320.69
2023-02-04T11:15:50.847Z,101327.22
2023-02-04T11:18:20.718Z,101318.66
2023-02-04T11:20:49.163Z,101326.28
2023-02-04T11:23:28.484Z,101326.84
2023-02-04T11:26:07.491Z,101325.53
2023-02-04T11:28:48.349Z,101325.88
2023-02-04T11:31:21.592Z,101323.34
2023-02-04T11:33:50.086Z,101322.94
2023-02-04T11:36:17.798Z,101315.91
2023-02-04T11:38:47.425Z,101310.50
2023-02-04T11:41:24.826Z,101317.59
2023-02-04T11:43:53.324Z,101310.69
2023-02-04T11:46:20.552Z,101324.34
2023-02-04T11:48:47.207Z,101322.38
2023-02-04T11:51:18.502Z,101318.31
2023-02-04T11:53:51.826Z,101316.41
2023-02-04T11:56:20.427Z,101316.72
2023-02-04T11:58:48.682Z,101319.75
2023-02-04T12:01:29.947Z,101314.41
2023-02-04T12:03:59.752Z,101311.50
2023-02-04T12:06:29.005Z,101318.59
2023-02-04T12:09:14.254Z,101315.91
2023-02-04T12:11:51.403Z,101319.50
2023-02-04T12:14:18.715Z,101316.00
2023-02-04T12:16:47.171Z,101316.06
2023-02-04T12:19:14.573Z,101313.34
2023-02-04T12:21:41.275Z,101319.63
2023-02-04T12:24:07.922Z,101312.72
2023-02-04T12:26:34.637Z,101317.34
2023-02-04T12:29:03.515Z,101313.00
2023-02-04T12:31:30.517Z,101317.34
2023-02-04T12:33:57.647Z,101322.19
2023-02-04T12:36:24.952Z,101322.19
2023-02-04T12:38:51.518Z,101308.13
2023-02-04T12:41:19.930Z,101308.25
2023-02-04T12:43:50.406Z,101315.09
2023-02-04T12:46:17.931Z,101317.25
2023-02-04T12:48:44.600Z,101320.75
2023-02-04T12:51:11.178Z,101316.38
2023-02-04T12:53:37.780Z,101316.81
2023-02-04T12:56:04.759Z,101313.78
2023-02-04T12:58:31.340Z,101309.13
2023-02-04T13:00:57.983Z,101312.94
2023-02-04T13:03:25.385Z,101308.47
2023-02-04T13:05:51.987Z,101306.63
2023-02-04T13:08:18.601Z,101306.09
2023-02-04T13:10:45.184Z,101299.09
2023-02-04T13:13:11.760Z,101301.28
2023-02-04T13:15:38.308Z,101295.59
2023-02-04T13:18:04.892Z,101298.53
2023-02-04T13:20:31.447Z,101297.50
2023-02-04T13:22:57.984Z,101295.13
2023-02-04T13:25:24.507Z,101299.91
2023-02-04T13:27:51.157Z,101305.09
2023-02-04T13:30:18.124Z,101304.34
2023-02-04T13:32:44.753Z,101306.00
2023-02-04T13:35:11.479Z,101305.75
2023-02-04T13:37:38.681Z,101301.13
2023-02-04T13:40:07.823Z,101309.81
2023-02-04T13:42:34.415Z,101301.97
2023-02-04T13:45:01.080Z,101308.72
2023-02-04T13:47:27.643Z,101310.34
2023-02-04T13:49:54.188Z,101298.97
2023-02-04T13:52:21.343Z,101309.59
2023-02-04T13:54:47.889Z,101308.81
2023-02-04T13:57:14.439Z,101312.56
2023-02-04T13:59:41.201Z,101307.31
2023-02-04T14:02:09.491Z,101304.25
2023-02-04T14:04:36.956Z,101305.81
2023-02-04T14:07:03.652Z,101315.00
2023-02-04T14:09:30.168Z,101308.50
2023-02-04T14:11:56.721Z,101305.28
2023-02-04T14:14:23.365Z,101305.31
2023-02-04T14:16:49.944Z,101309.66
2023-02-04T14:19:17.077Z,101310.50
2023-02-04T14:21:43.700Z,101309.66
2023-02-04T14:24:10.322Z,101308.84
2023-02-04T14:26:36.881Z,101308.56
2023-02-04T14:29:04.587Z,101307.44
2023-02-04T14:31:31.221Z,101307.97
2023-02-04T14:33:59.405Z,101310.66
2023-02-04T14:36:25.941Z,101316.09
2023-02-04T14:38:52.463Z,101313.09
2023-02-04T14:41:21.331Z,101311.41
2023-02-04T14:43:48.045Z,101313.75
2023-02-04T14:46:14.914Z,101318.88
2023-02-04T14:48:41.670Z,101310.50
2023-02-04T14:51:08.245Z,101312.69
2023-02-04T14:53:34.806Z,101309.16
2023-02-04T14:56:01.369Z,101312.13
2023-02-04T14:58:28.164Z,101307.78
2023-02-04T15:00:55.188Z,101305.59
2023-02-04T15:03:22.016Z,101304.72
2023-02-04T15:05:48.584Z,101297.41
2023-02-04T15:08:15.119Z,101299.84
2023-02-04T15:10:41.737Z,101299.06
2023-02-04T15:13:08.598Z,101305.28
2023-02-04T15:15:35.200Z,101310.97
2023-02-04T15:18:01.754Z,101312.59
2023-02-04T15:20:28.468Z,101316.38
2023-02-04T15:22:56.479Z,101307.13
2023-02-04T15:25:23.870Z,101311.41
2023-02-04T15:27:50.467Z,101321.97
2023-02-04T15:30:17.421Z,101321.63
2023-02-04T15:32:45.976Z,101320.53
2023-02-04T15:35:13.578Z,101323.69
2023-02-04T15:37:40.200Z,101319.28
2023-02-04T15:40:08.712Z,101323.84
2023-02-04T15:42:35.783Z,101337.28
2023-02-04T15:45:02.435Z,101332.56
2023-02-04T15:47:28.993Z,101339.00
2023-02-04T15:49:55.581Z,101335.69
2023-02-04T15:52:24.937Z,101332.59
2023-02-04T15:54:53.098Z,101340.31
2023-02-04T15:57:19.676Z,101340.19
2023-02-04T15:59:46.863Z,101335.97
2023-02-04T16:02:13.894Z,101337.44
2023-02-04T16:04:41.644Z,101340.78
2023-02-04T16:07:08.485Z,101339.56
2023-02-04T16:09:35.775Z,101345.97
2023-02-04T16:12:02.471Z,101356.09
2023-02-04T16:14:29.150Z,101346.28
2023-02-04T16:16:55.761Z,101349.41
2023-02-04T16:19:22.316Z,101350.84
2023-02-04T16:21:48.873Z,101356.09
2023-02-04T16:24:18.456Z,101352.72
2023-02-04T16:26:46.147Z,101357.44
2023-02-04T16:29:12.798Z,101347.38
2023-02-04T16:31:39.388Z,101355.72
2023-02-04T16:34:06.097Z,101352.94
2023-02-04T16:36:32.755Z,101358.56
2023-02-04T16:39:00.195Z,101354.22
2023-02-04T16:41:26.900Z,101361.53
2023-02-04T16:43:53.521Z,101367.16
2023-02-04T16:46:20.123Z,101370.91
2023-02-04T16:48:46.701Z,101373.03
2023-02-04T16:51:13.317Z,101366.00
2023-02-04T16:53:39.944Z,101370.56
2023-02-04T16:56:07.246Z,101367.28
2023-02-04T16:58:33.846Z,101375.66
2023-02-04T17:01:00.499Z,101378.81
2023-02-04T17:03:28.163Z,101387.75
2023-02-04T17:05:54.711Z,101383.63
2023-02-04T17:08:21.326Z,101388.44
2023-02-04T17:11:07.265Z,101387.06
2023-02-04T17:13:34.317Z,101394.59
2023-02-04T17:16:01.434Z,101388.00
2023-02-04T17:18:29.972Z,101391.75
2023-02-04T17:20:57.410Z,101390.13
2023-02-04T17:23:24.023Z,101391.09
2023-02-04T17:25:50.724Z,101397.53
2023-02-04T17:28:17.502Z,101395.34
2023-02-04T17:30:44.178Z,101398.03
2023-02-04T17:33:10.785Z,101398.50
2023-02-04T17:35:37.316Z,101401.22
2023-02-04T17:38:03.915Z,101404.97
2023-02-04T17:40:30.493Z,101414.13
2023-02-04T17:42:57.087Z,101411.16
2023-02-04T17:45:24.576Z,101408.72
2023-02-04T17:47:51.147Z,101406.81
2023-02-04T17:50:19.178Z,101426.56
2023-02-04T17:52:45.753Z,101424.44
2023-02-04T17:55:27.740Z,101417.41
2023-02-04T17:57:55.587Z,101414.69
2023-02-04T18:00:25.180Z,101421.97
2023-02-04T18:02:52.868Z,101427.34
2023-02-04T18:05:22.521Z,101422.78
2023-02-04T18:08:13.293Z,101432.06
2023-02-04T18:10:43.645Z,101418.81
2023-02-04T18:13:15.151Z,101426.31
2023-02-04T18:15:44.782Z,101424.69
2023-02-04T18:18:32.462Z,101428.91
2023-02-04T18:21:03.063Z,101431.84
2023-02-04T18:23:32.618Z,101432.31
2023-02-04T18:26:08.635Z,101427.03
2023-02-04T18:28:36.856Z,101428.78
2023-02-04T18:31:04.158Z,101426.41
2023-02-04T18:33:33.068Z,101426.56
2023-02-04T18:36:01.262Z,101434.75
2023-02-04T18:38:37.192Z,101438.03
2023-02-04T18:41:18.927Z,101428.19
2023-02-04T18:43:50.816Z,101433.09
2023-02-04T18:46:27.080Z,101426.19
2023-02-04T18:49:05.447Z,101426.97
2023-02-04T18:51:35.221Z,101424.16
2023-02-04T18:54:23.274Z,101421.78
2023-02-04T18:56:49.909Z,101416.13
2023-02-04T18:59:18.722Z,101423.28
2023-02-04T19:01:47.863Z,101428.97
2023-02-04T19:04:22.318Z,101430.56
2023-02-04T19:06:52.234Z,101424.69
2023-02-04T19:09:24.833Z,101422.53
2023-02-04T19:11:54.253Z,101429.28
2023-02-04T19:14:39.044Z,101422.00
2023-02-04T19:17:16.923Z,101424.50
2023-02-04T19:19:53.282Z,101429.75
2023-02-04T19:22:40.922Z,101431.25
2023-02-04T19:25:46.466Z,101433.88
2023-02-04T19:28:25.079Z,101423.16
2023-02-04T19:30:58.461Z,101423.59
2023-02-04T19:33:33.555Z,101430.47
2023-02-04T19:36:34.053Z,101437.78
2023-02-04T19:39:19.378Z,101434.13
2023-02-04T19:41:51.503Z,101434.38
2023-02-04T19:44:32.739Z,101438.03
2023-02-04T19:47:18.512Z,101442.19
2023-02-04T19:49:45.080Z,101448.03
2023-02-04T19:52:30.492Z,101449.28
2023-02-04T19:55:19.717Z,101442.66
2023-02-04T19:57:49.925Z,101439.31
2023-02-04T20:00:37.403Z,101431.84
2023-02-04T20:03:16.492Z,101431.59
2023-02-04T20:05:43.872Z,101430.16
2023-02-04T20:08:41.507Z,101433.63
2023-02-04T20:11:29.844Z,101425.56
2023-02-04T20:14:14.724Z,101431.78
2023-02-04T20:16:49.557Z,101430.91
2023-02-04T20:19:22.137Z,101440.16
2023-02-04T20:22:20.968Z,101444.47
2023-02-04T20:24:48.781Z,101452.69
2023-02-04T20:27:36.173Z,101441.34
2023-02-04T20:30:10.831Z,101448.97
2023-02-04T20:32:40.782Z,101436.50
2023-02-04T20:35:09.801Z,101451.38
2023-02-04T20:37:36.609Z,101445.56
2023-02-04T20:40:21.540Z,101456.06
2023-02-04T20:43:09.604Z,101452.13
2023-02-04T20:45:39.141Z,101445.69
2023-02-04T20:48:18.010Z,101452.13
2023-02-04T20:50:48.344Z,101457.28
2023-02-04T20:53:28.414Z,101462.50
2023-02-04T20:56:05.162Z,101458.41
2023-02-04T20:58:34.753Z,101462.59
2023-02-04T21:01:01.383Z,101460.09
2023-02-04T21:03:34.070Z,101462.19
2023-02-04T21:06:01.504Z,101463.44
2023-02-04T21:08:40.881Z,101448.16
2023-02-04T21:11:08.057Z,101454.94
2023-02-04T21:13:35.328Z,101455.19
2023-02-04T21:16:02.384Z,101461.81
2023-02-04T21:18:30.171Z,101456.13
2023-02-04T21:20:57.429Z,101465.50
2023-02-04T21:23:23.997Z,101467.44
2023-02-04T21:25:50.688Z,101467.88
2023-02-04T21:28:17.408Z,101466.69
2023-02-04T21:30:44.090Z,101467.13
2023-02-04T21:33:11.693Z,101464.25
2023-02-04T21:35:39.593Z,101466.78
2023-02-04T21:38:07.280Z,101466.41
2023-02-04T21:40:36.021Z,101461.88
2023-02-04T21:43:07.580Z,101462.13
2023-02-04T21:45:36.519Z,101464.81
2023-02-04T21:48:04.807Z,101464.81
2023-02-04T21:50:33.064Z,101461.06
2023-02-04T21:53:00.116Z,101452.13
2023-02-04T21:55:27.131Z,101465.53
2023-02-04T21:57:53.738Z,101460.75
2023-02-04T22:00:23.758Z,101472.50
2023-02-04T22:02:51.759Z,101470.63
2023-02-04T22:05:19.511Z,101465.03
2023-02-04T22:07:46.647Z,101473.25
2023-02-04T22:10:16.417Z,101466.38
2023-02-04T22:12:43.046Z,101470.66
2023-02-04T22:15:10.237Z,101460.06
2023-02-04T22:17:36.788Z,101463.59
2023-02-04T22:20:04.019Z,101462.22
2023-02-04T22:22:30.803Z,101465.78
2023-02-04T22:24:57.408Z,101459.22
2023-02-04T22:27:24.041Z,101468.47
2023-02-04T22:29:50.584Z,101461.41
2023-02-04T22:32:17.153Z,101464.66
2023-02-04T22:34:43.705Z,101455.09
2023-02-04T22:37:10.282Z,101458.97
2023-02-04T22:39:36.836Z,101467.19
2023-02-04T22:42:03.682Z,101460.56
2023-02-04T22:44:30.305Z,101453.09
2023-02-04T22:46:56.909Z,101458.25
2023-02-04T22:49:23.544Z,101454.06
2023-02-04T22:51:50.162Z,101457.97
2023-02-04T22:54:16.804Z,101463.94
2023-02-04T22:56:43.429Z,101453.31
2023-02-04T22:59:09.969Z,101458.50
2023-02-04T23:01:36.647Z,101471.09
2023-02-04T23:04:03.398Z,101464.06
2023-02-04T23:06:30.026Z,101462.84
2023-02-04T23:08:56.793Z,101468.84
2023-02-04T23:11:24.837Z,101465.09
2023-02-04T23:13:51.440Z,101464.25
2023-02-04T23:16:19.109Z,101466.72
2023-02-04T23:18:46.452Z,101469.81
2023-02-04T23:21:14.085Z,101471.91
2023-02-04T23:23:40.946Z,101476.06
2023-02-04T23:26:07.595Z,101475.47
2023-02-04T23:28:34.219Z,101472.78
2023-02-04T23:31:00.834Z,101469.88
2023-02-04T23:33:27.460Z,101465.69
2023-02-04T23:35:54.112Z,101468.75
2023-02-04T23:38:20.690Z,101465.63
2023-02-04T23:40:47.235Z,101467.03
2023-02-04T23:43:13.786Z,101460.63
2023-02-04T23:45:40.413Z,101467.66
2023-02-04T23:48:07.118Z,101469.34
2023-02-04T23:50:33.653Z,101459.50
2023-02-04T23:53:00.710Z,101461.56
2023-02-04T23:55:27.334Z,101463.25
2023-02-04T23:57:54.172Z,101462.19
